createdAt,value
2019-03-28T00:01:14.898Z,23.40
2019-03-28T00:03:45.805Z,21.37
2019-03-28T00:06:17.082Z,19.77
2019-03-28T00:08:47.982Z,23.43
2019-03-28T00:11:19.724Z,25.77
2019-03-28T00:13:50.616Z,23.80
2019-03-28T00:16:21.546Z,25.67
2019-03-28T00:18:53.181Z,28.93
2019-03-28T00:21:25.158Z,32.50
2019-03-28T00:24:00.889Z,26.50
2019-03-28T00:26:32.064Z,21.47
2019-03-28T00:29:03.161Z,20.07
2019-03-28T00:31:34.139Z,20.70
2019-03-28T00:34:05.010Z,21.43
2019-03-28T00:36:36.751Z,19.70
2019-03-28T00:39:08.064Z,22.57
2019-03-28T00:41:38.996Z,18.97
2019-03-28T00:44:09.899Z,19.67
2019-03-28T00:46:40.834Z,21.83
2019-03-28T00:49:11.726Z,22.10
2019-03-28T00:51:43.541Z,22.83
2019-03-28T00:54:14.422Z,23.03
2019-03-28T00:56:47.614Z,24.20
2019-03-28T00:59:17.941Z,19.93
2019-03-28T01:01:48.865Z,24.53
2019-03-28T01:04:19.785Z,17.53
2019-03-28T01:06:51.795Z,15.77
2019-03-28T01:09:22.693Z,16.90
2019-03-28T01:11:53.623Z,21.77
2019-03-28T01:14:24.523Z,18.90
2019-03-28T01:16:55.453Z,17.80
2019-03-28T01:19:27.553Z,18.83
2019-03-28T01:21:58.503Z,19.87
2019-03-28T01:24:29.404Z,21.13
2019-03-28T01:27:00.444Z,18.00
2019-03-28T01:29:31.846Z,21.63
2019-03-28T01:32:03.177Z,22.33
2019-03-28T01:34:34.074Z,28.57
2019-03-28T01:37:05.937Z,23.33
2019-03-28T01:39:36.834Z,21.60
2019-03-28T01:42:07.772Z,26.40
2019-03-28T01:44:38.674Z,22.23
2019-03-28T01:47:09.592Z,20.80
2019-03-28T01:49:40.493Z,23.33
2019-03-28T01:52:11.447Z,19.83
2019-03-28T01:54:42.348Z,23.27
2019-03-28T01:57:13.277Z,24.90
2019-03-28T01:59:44.173Z,22.57
2019-03-28T02:02:15.107Z,26.47
2019-03-28T02:04:46.010Z,23.50
2019-03-28T02:07:17.950Z,24.40
2019-03-28T02:09:48.851Z,24.00
2019-03-28T02:12:19.782Z,27.83
2019-03-28T02:14:50.744Z,23.73
2019-03-28T02:17:22.941Z,27.67
2019-03-28T02:19:53.855Z,26.67
2019-03-28T02:22:24.806Z,26.40
2019-03-28T02:24:55.705Z,23.97
2019-03-28T02:27:26.637Z,24.90
2019-03-28T02:29:58.889Z,22.80
2019-03-28T02:32:29.849Z,21.43
2019-03-28T02:35:00.805Z,22.73
2019-03-28T02:37:31.792Z,20.00
2019-03-28T02:40:02.697Z,23.10
2019-03-28T02:42:33.633Z,22.30
2019-03-28T02:45:05.431Z,19.67
2019-03-28T02:47:36.375Z,21.60
2019-03-28T02:50:08.179Z,21.97
2019-03-28T02:52:39.144Z,21.87
2019-03-28T02:55:10.141Z,22.77
2019-03-28T02:57:43.582Z,22.67
2019-03-28T03:00:13.984Z,22.77
2019-03-28T03:02:44.905Z,19.23
2019-03-28T03:05:15.807Z,20.90
2019-03-28T03:07:46.784Z,19.07
2019-03-28T03:10:17.891Z,21.57
2019-03-28T03:12:48.790Z,21.10
2019-03-28T03:15:19.699Z,23.33
2019-03-28T03:17:50.631Z,19.27
2019-03-28T03:20:21.535Z,24.40
2019-03-28T03:22:52.484Z,19.97
2019-03-28T03:25:23.382Z,17.70
2019-03-28T03:27:58.333Z,21.03
2019-03-28T03:30:26.914Z,21.67
2019-03-28T03:32:57.846Z,22.70
2019-03-28T03:35:28.852Z,22.80
2019-03-28T03:37:59.883Z,19.10
2019-03-28T03:40:30.811Z,25.10
2019-03-28T03:43:03.755Z,20.80
2019-03-28T03:45:35.570Z,20.33
2019-03-28T03:48:06.995Z,25.57
2019-03-28T03:50:37.897Z,22.93
2019-03-28T03:53:09.761Z,25.40
2019-03-28T03:55:43.371Z,22.67
2019-03-28T03:58:16.848Z,22.27
2019-03-28T04:00:46.918Z,23.57
2019-03-28T04:03:17.840Z,18.97
2019-03-28T04:05:48.797Z,22.47
2019-03-28T04:08:20.669Z,22.50
2019-03-28T04:10:51.622Z,22.80
2019-03-28T04:13:22.608Z,23.47
2019-03-28T04:15:53.703Z,21.03
2019-03-28T04:18:24.687Z,21.80
2019-03-28T04:20:57.240Z,25.90
2019-03-28T04:23:30.737Z,20.70
2019-03-28T04:26:01.677Z,20.13
2019-03-28T04:28:32.893Z,18.00
2019-03-28T04:31:03.994Z,24.80
2019-03-28T04:33:35.771Z,26.80
2019-03-28T04:36:06.882Z,21.87
2019-03-28T04:38:38.806Z,19.80
2019-03-28T04:41:09.764Z,22.00
2019-03-28T04:43:40.755Z,23.27
2019-03-28T04:46:11.703Z,23.27
2019-03-28T04:48:42.674Z,21.53
2019-03-28T04:51:13.628Z,21.27
2019-03-28T04:53:45.457Z,21.70
2019-03-28T04:56:16.410Z,21.33
2019-03-28T04:58:47.399Z,20.27
2019-03-28T05:01:18.348Z,24.17
2019-03-28T05:03:49.455Z,23.07
2019-03-28T05:06:20.580Z,37.13
2019-03-28T05:08:51.573Z,52.93
2019-03-28T05:11:22.516Z,35.53
2019-03-28T05:13:53.499Z,26.13
2019-03-28T05:16:24.459Z,21.93
2019-03-28T05:18:55.445Z,22.53
2019-03-28T05:21:27.974Z,23.73
2019-03-28T05:24:02.732Z,22.30
2019-03-28T05:26:33.686Z,31.27
2019-03-28T05:29:04.680Z,29.73
2019-03-28T05:31:35.699Z,23.47
2019-03-28T05:34:06.690Z,34.30
2019-03-28T05:36:37.648Z,89.40
2019-03-28T05:39:08.660Z,66.83
2019-03-28T05:41:39.608Z,65.67
2019-03-28T05:44:10.589Z,66.60
2019-03-28T05:46:41.552Z,70.80
2019-03-28T05:49:12.535Z,44.50
2019-03-28T05:51:43.486Z,30.20
2019-03-28T05:54:15.304Z,25.33
2019-03-28T05:56:46.236Z,24.07
2019-03-28T05:59:17.177Z,27.77
2019-03-28T06:01:48.154Z,29.83
2019-03-28T06:04:19.097Z,26.80
2019-03-28T06:06:50.005Z,21.40
2019-03-28T06:09:24.556Z,22.40
2019-03-28T06:11:55.428Z,24.13
2019-03-28T06:14:26.379Z,23.27
2019-03-28T06:16:57.284Z,27.47
2019-03-28T06:19:28.212Z,32.17
2019-03-28T06:22:00.705Z,50.67
2019-03-28T06:24:31.668Z,44.80
2019-03-28T06:27:02.587Z,45.33
2019-03-28T06:29:33.455Z,131.43
2019-03-28T06:32:04.408Z,95.33
2019-03-28T06:34:35.325Z,69.17
2019-03-28T06:37:06.495Z,47.97
2019-03-28T06:39:39.516Z,55.57
2019-03-28T06:42:10.422Z,50.37
2019-03-28T06:44:41.349Z,70.47
2019-03-28T06:47:12.255Z,94.17
2019-03-28T06:49:43.233Z,61.17
2019-03-28T06:52:14.131Z,157.50
2019-03-28T06:54:46.085Z,65.07
2019-03-28T06:57:18.945Z,29.50
2019-03-28T06:59:49.615Z,31.83
2019-03-28T07:02:21.911Z,28.20
2019-03-28T07:04:53.033Z,35.23
2019-03-28T07:07:23.931Z,43.93
2019-03-28T07:09:55.766Z,27.83
2019-03-28T07:12:26.678Z,41.83
2019-03-28T07:14:59.627Z,28.40
2019-03-28T07:17:30.203Z,49.50
2019-03-28T07:20:01.135Z,57.90
2019-03-28T07:22:32.954Z,26.13
2019-03-28T07:25:05.887Z,24.40
2019-03-28T07:27:36.783Z,23.33
2019-03-28T07:30:10.121Z,28.80
2019-03-28T07:32:43.304Z,21.50
2019-03-28T07:35:13.655Z,22.40
2019-03-28T07:37:44.552Z,26.73
2019-03-28T07:40:16.068Z,28.50
2019-03-28T07:42:46.969Z,27.60
2019-03-28T07:45:18.003Z,21.77
2019-03-28T07:47:48.909Z,20.93
2019-03-28T07:50:19.845Z,19.63
2019-03-28T07:52:50.826Z,22.85
2019-03-28T07:55:22.597Z,17.50
2019-03-28T07:57:53.509Z,20.57
2019-03-28T08:00:26.634Z,21.02
2019-03-28T08:02:58.549Z,19.60
2019-03-28T08:05:29.644Z,19.30
2019-03-28T08:08:00.579Z,17.98
2019-03-28T08:10:31.533Z,26.20
2019-03-28T08:13:02.505Z,35.68
2019-03-28T08:15:33.433Z,23.47
2019-03-28T08:18:04.346Z,17.87
2019-03-28T08:20:35.280Z,30.60
2019-03-28T08:23:06.199Z,22.60
2019-03-28T08:25:38.027Z,17.15
2019-03-28T08:28:08.927Z,22.95
2019-03-28T08:30:40.156Z,29.80
2019-03-28T08:33:11.067Z,22.60
2019-03-28T08:35:47.082Z,34.38
2019-03-28T08:38:20.299Z,18.60
2019-03-28T08:40:53.021Z,20.02
2019-03-28T08:43:23.945Z,23.92
2019-03-28T08:45:54.903Z,21.65
2019-03-28T08:48:25.877Z,17.20
2019-03-28T08:50:56.812Z,24.50
2019-03-28T08:53:31.291Z,21.10
2019-03-28T08:56:02.965Z,26.12
2019-03-28T08:58:33.879Z,28.62
2019-03-28T09:01:05.890Z,45.95
2019-03-28T09:03:37.016Z,31.17
2019-03-28T09:06:07.971Z,20.02
2019-03-28T09:08:38.883Z,33.23
2019-03-28T09:11:10.731Z,14.07
2019-03-28T09:13:41.648Z,16.07
2019-03-28T09:16:12.589Z,16.07
2019-03-28T09:18:43.503Z,15.95
2019-03-28T09:21:14.450Z,13.30
2019-03-28T09:23:46.131Z,14.43
2019-03-28T09:26:17.130Z,13.93
2019-03-28T09:28:48.061Z,13.10
2019-03-28T09:31:20.366Z,14.05
2019-03-28T09:33:54.191Z,15.48
2019-03-28T09:36:25.138Z,12.80
2019-03-28T09:38:56.059Z,19.27
2019-03-28T09:41:29.313Z,15.32
2019-03-28T09:44:00.240Z,14.68
2019-03-28T09:46:31.166Z,15.80
2019-03-28T09:49:02.072Z,7.85
2019-03-28T09:51:35.196Z,13.32
2019-03-28T09:54:05.771Z,8.53
2019-03-28T09:56:37.615Z,8.65
2019-03-28T09:59:08.684Z,8.48
2019-03-28T10:01:39.749Z,8.10
2019-03-28T10:04:10.733Z,6.45
2019-03-28T10:06:41.675Z,10.55
2019-03-28T10:09:15.581Z,7.08
2019-03-28T10:11:47.496Z,6.75
2019-03-28T10:14:18.397Z,10.78
2019-03-28T10:16:49.333Z,6.87
2019-03-28T10:19:20.300Z,7.78
2019-03-28T10:21:51.229Z,6.47
2019-03-28T10:24:22.951Z,5.87
2019-03-28T10:26:54.879Z,6.75
2019-03-28T10:29:25.775Z,7.90
2019-03-28T10:31:56.749Z,5.90
2019-03-28T10:34:27.674Z,6.53
2019-03-28T10:37:00.393Z,6.08
2019-03-28T10:39:31.299Z,5.67
2019-03-28T10:42:03.145Z,5.25
2019-03-28T10:44:34.057Z,4.83
2019-03-28T10:47:05.257Z,5.92
2019-03-28T10:49:36.157Z,6.00
2019-03-28T10:52:07.410Z,6.62
2019-03-28T10:54:38.308Z,5.90
2019-03-28T10:57:33.002Z,5.42
2019-03-28T11:00:23.866Z,6.72
2019-03-28T11:03:19.629Z,15.23
2019-03-28T11:05:50.642Z,3.80
2019-03-28T11:08:21.870Z,5.22
2019-03-28T11:10:53.178Z,5.95
2019-03-28T11:13:24.274Z,9.43
2019-03-28T11:15:55.192Z,8.80
2019-03-28T11:18:29.817Z,16.52
2019-03-28T11:21:01.648Z,9.28
2019-03-28T11:23:34.774Z,10.45
2019-03-28T11:26:07.725Z,10.35
2019-03-28T11:28:40.370Z,6.47
2019-03-28T11:31:11.257Z,8.10
2019-03-28T11:33:52.769Z,6.95
2019-03-28T11:36:30.762Z,6.03
2019-03-28T11:39:02.925Z,5.25
2019-03-28T11:41:35.378Z,4.45
2019-03-28T11:44:06.322Z,6.00
2019-03-28T11:46:39.078Z,6.22
2019-03-28T11:49:10.090Z,4.58
2019-03-28T11:51:40.986Z,6.30
2019-03-28T11:54:17.814Z,5.90
2019-03-28T11:56:50.387Z,7.97
2019-03-28T11:59:38.790Z,4.03
2019-03-28T12:02:20.290Z,4.00
2019-03-28T12:04:50.138Z,66.05
2019-03-28T12:07:23.776Z,8.58
2019-03-28T12:09:54.725Z,8.35
2019-03-28T12:12:25.629Z,7.62
2019-03-28T12:14:56.578Z,10.13
2019-03-28T12:17:27.489Z,7.53
2019-03-28T12:19:58.409Z,6.72
2019-03-28T12:22:29.312Z,7.40
2019-03-28T12:25:00.422Z,5.92
2019-03-28T12:27:31.408Z,7.60
2019-03-28T12:30:03.152Z,6.47
2019-03-28T12:32:34.055Z,9.98
2019-03-28T12:35:06.482Z,8.78
2019-03-28T12:37:39.920Z,10.38
2019-03-28T12:40:10.615Z,8.40
2019-03-28T12:42:41.507Z,10.15
2019-03-28T12:45:12.993Z,11.35
2019-03-28T12:47:43.873Z,9.78
2019-03-28T12:50:14.993Z,9.80
2019-03-28T12:52:45.914Z,11.33
2019-03-28T12:55:16.836Z,7.72
2019-03-28T12:57:48.564Z,7.62
2019-03-28T13:00:23.403Z,10.20
2019-03-28T13:02:54.310Z,12.03
2019-03-28T13:05:25.241Z,8.60
2019-03-28T13:07:56.196Z,8.70
2019-03-28T13:10:27.450Z,8.45
2019-03-28T13:12:58.711Z,10.68
2019-03-28T13:15:29.652Z,8.95
2019-03-28T13:18:00.542Z,7.90
2019-03-28T13:20:31.469Z,10.50
2019-03-28T13:23:02.396Z,9.80
2019-03-28T13:25:33.307Z,8.80
2019-03-28T13:28:06.395Z,11.55
2019-03-28T13:30:38.185Z,9.95
2019-03-28T13:33:09.088Z,11.93
2019-03-28T13:35:40.035Z,10.48
2019-03-28T13:38:10.942Z,11.57
2019-03-28T13:40:41.874Z,8.95
2019-03-28T13:43:12.776Z,11.10
2019-03-28T13:45:44.582Z,8.90
2019-03-28T13:48:15.474Z,10.93
2019-03-28T13:50:46.419Z,11.97
2019-03-28T13:53:17.328Z,14.25
2019-03-28T13:55:48.275Z,13.38
2019-03-28T13:58:19.181Z,12.10
2019-03-28T14:00:50.939Z,11.85
2019-03-28T14:03:21.853Z,13.45
2019-03-28T14:05:52.787Z,11.75
2019-03-28T14:08:23.776Z,8.13
2019-03-28T14:10:54.703Z,13.05
2019-03-28T14:13:25.615Z,11.33
2019-03-28T14:15:58.152Z,8.05
2019-03-28T14:18:29.179Z,8.10
2019-03-28T14:21:00.095Z,9.27
2019-03-28T14:23:31.007Z,14.50
2019-03-28T14:26:10.691Z,12.87
2019-03-28T14:28:41.729Z,14.27
2019-03-28T14:31:13.639Z,15.73
2019-03-28T14:33:44.546Z,22.43
2019-03-28T14:36:15.475Z,19.80
2019-03-28T14:38:46.381Z,16.13
2019-03-28T14:41:17.313Z,14.73
2019-03-28T14:43:48.213Z,14.13
2019-03-28T14:46:20.028Z,11.10
2019-03-28T14:48:50.960Z,11.90
2019-03-28T14:51:21.943Z,10.90
2019-03-28T14:53:52.861Z,17.63
2019-03-28T14:56:24.893Z,34.47
2019-03-28T14:58:58.492Z,39.07
2019-03-28T15:01:30.396Z,25.97
2019-03-28T15:04:01.304Z,26.87
2019-03-28T15:06:32.236Z,17.57
2019-03-28T15:09:04.114Z,22.93
2019-03-28T15:11:35.039Z,12.47
2019-03-28T15:14:05.939Z,13.20
2019-03-28T15:16:37.882Z,12.97
2019-03-28T15:19:08.850Z,12.67
2019-03-28T15:21:39.785Z,12.87
2019-03-28T15:24:10.703Z,17.47
2019-03-28T15:26:47.299Z,13.20
2019-03-28T15:29:18.254Z,33.30
2019-03-28T15:31:50.846Z,13.87
2019-03-28T15:34:21.757Z,20.40
2019-03-28T15:36:53.563Z,25.13
2019-03-28T15:39:24.701Z,18.57
2019-03-28T15:41:55.635Z,18.23
2019-03-28T15:44:26.564Z,14.80
2019-03-28T15:46:58.413Z,13.63
2019-03-28T15:49:29.368Z,13.67
2019-03-28T15:52:03.116Z,12.63
2019-03-28T15:54:32.867Z,12.10
2019-03-28T15:57:03.810Z,17.57
2019-03-28T15:59:34.707Z,17.07
2019-03-28T16:02:07.131Z,15.57
2019-03-28T16:04:40.089Z,65.47
2019-03-28T16:07:11.020Z,16.57
2019-03-28T16:10:04.088Z,14.47
2019-03-28T16:12:34.932Z,13.63
2019-03-28T16:15:07.827Z,16.80
2019-03-28T16:17:39.619Z,15.70
2019-03-28T16:20:10.925Z,18.67
2019-03-28T16:22:41.853Z,19.47
2019-03-28T16:25:12.856Z,29.23
2019-03-28T16:27:44.961Z,22.53
2019-03-28T16:30:18.208Z,19.63
2019-03-28T16:32:50.896Z,27.97
2019-03-28T16:35:21.791Z,22.87
2019-03-28T16:37:53.745Z,24.63
2019-03-28T16:40:25.007Z,27.23
2019-03-28T16:42:55.942Z,25.57
2019-03-28T16:45:26.859Z,20.43
2019-03-28T16:48:02.584Z,27.67
2019-03-28T16:50:34.134Z,27.23
2019-03-28T16:53:05.119Z,24.27
2019-03-28T16:55:36.038Z,24.90
2019-03-28T16:58:06.957Z,31.87
2019-03-28T17:00:38.666Z,66.33
2019-03-28T17:03:10.624Z,22.97
2019-03-28T17:05:41.773Z,28.50
2019-03-28T17:08:13.144Z,32.40
2019-03-28T17:10:46.615Z,36.00
2019-03-28T17:13:18.759Z,44.63
2019-03-28T17:15:51.022Z,124.80
2019-03-28T17:18:23.165Z,115.33
2019-03-28T17:20:54.074Z,105.60
2019-03-28T17:23:25.023Z,132.83
2019-03-28T17:25:55.928Z,128.20
2019-03-28T17:28:26.866Z,124.37
2019-03-28T17:30:58.634Z,131.37
2019-03-28T17:33:30.409Z,180.23
2019-03-28T17:36:01.337Z,154.23
2019-03-28T17:38:32.287Z,117.23
2019-03-28T17:41:06.430Z,99.53
2019-03-28T17:43:35.845Z,107.23
2019-03-28T17:46:06.742Z,104.00
2019-03-28T17:48:38.530Z,117.07
2019-03-28T17:51:09.676Z,112.03
2019-03-28T17:53:40.955Z,138.27
2019-03-28T17:56:11.857Z,122.17
2019-03-28T17:58:48.332Z,117.70
2019-03-28T18:01:15.574Z,174.63
2019-03-28T18:03:47.427Z,111.10
2019-03-28T18:06:18.335Z,110.47
2019-03-28T18:08:49.272Z,256.47
2019-03-28T18:11:22.176Z,241.60
2019-03-28T18:13:52.835Z,287.93
2019-03-28T18:16:23.864Z,243.43
2019-03-28T18:18:55.864Z,258.50
2019-03-28T18:21:26.783Z,197.17
2019-03-28T18:23:57.723Z,196.90
2019-03-28T18:26:28.640Z,167.90
2019-03-28T18:28:59.625Z,155.13
2019-03-28T18:31:31.474Z,147.63
2019-03-28T18:34:03.321Z,114.70
2019-03-28T18:36:34.295Z,94.57
2019-03-28T18:39:06.820Z,83.57
2019-03-28T18:41:38.766Z,76.70
2019-03-28T18:44:09.731Z,70.67
2019-03-28T18:46:40.645Z,69.27
2019-03-28T18:49:12.529Z,65.37
2019-03-28T18:51:43.435Z,71.53
2019-03-28T18:54:14.368Z,50.20
2019-03-28T18:56:45.292Z,50.93
2019-03-28T18:59:16.225Z,51.97
2019-03-28T19:01:47.131Z,51.80
2019-03-28T19:04:20.013Z,77.40
2019-03-28T19:06:50.929Z,109.53
2019-03-28T19:09:21.896Z,110.57
2019-03-28T19:11:52.813Z,108.30
2019-03-28T19:14:23.746Z,77.93
2019-03-28T19:16:54.651Z,61.23
2019-03-28T19:19:38.771Z,42.10
2019-03-28T19:21:58.195Z,50.07
2019-03-28T19:24:29.126Z,31.53
2019-03-28T19:27:00.025Z,43.10
2019-03-28T19:29:30.969Z,38.97
2019-03-28T19:32:01.881Z,27.37
2019-03-28T19:34:33.639Z,43.97
2019-03-28T19:37:04.654Z,25.60
2019-03-28T19:39:36.911Z,28.57
2019-03-28T19:42:07.858Z,23.07
2019-03-28T19:44:38.864Z,26.83
2019-03-28T19:47:09.791Z,20.67
2019-03-28T19:49:40.799Z,17.53
2019-03-28T19:52:13.390Z,16.57
2019-03-28T19:54:44.386Z,19.03
2019-03-28T19:57:15.294Z,21.30
2019-03-28T19:59:46.216Z,18.47
2019-03-28T20:02:17.194Z,18.23
2019-03-28T20:04:49.110Z,12.47
2019-03-28T20:07:21.822Z,12.23
2019-03-28T20:09:52.623Z,10.77
2019-03-28T20:12:23.518Z,10.87
2019-03-28T20:14:54.451Z,11.07
2019-03-28T20:17:25.341Z,10.17
2019-03-28T20:19:57.188Z,10.50
2019-03-28T20:22:28.087Z,11.30
2019-03-28T20:24:59.028Z,16.60
2019-03-28T20:27:29.920Z,12.27
2019-03-28T20:30:01.293Z,10.93
2019-03-28T20:32:33.831Z,15.97
2019-03-28T20:35:05.863Z,14.47
2019-03-28T20:37:37.841Z,18.00
2019-03-28T20:40:11.070Z,12.73
2019-03-28T20:42:41.987Z,15.33
2019-03-28T20:45:13.437Z,15.23
2019-03-28T20:47:44.410Z,13.70
2019-03-28T20:50:17.349Z,12.60
2019-03-28T20:52:48.251Z,11.40
2019-03-28T20:55:19.192Z,15.97
2019-03-28T20:57:50.089Z,10.53
2019-03-28T21:00:39.414Z,13.63
2019-03-28T21:03:10.752Z,20.77
2019-03-28T21:05:42.552Z,12.63
2019-03-28T21:08:13.750Z,12.97
2019-03-28T21:10:44.679Z,12.53
2019-03-28T21:13:15.565Z,14.67
2019-03-28T21:15:46.506Z,11.00
2019-03-28T21:18:17.410Z,13.90
2019-03-28T21:20:49.238Z,11.07
2019-03-28T21:23:20.120Z,15.57
2019-03-28T21:25:51.060Z,15.50
2019-03-28T21:28:21.966Z,13.00
2019-03-28T21:30:53.696Z,11.57
2019-03-28T21:33:25.483Z,17.50
2019-03-28T21:35:56.546Z,13.53
2019-03-28T21:38:27.431Z,12.33
2019-03-28T21:40:59.691Z,12.67
2019-03-28T21:43:31.101Z,11.53
2019-03-28T21:46:02.037Z,14.13
2019-03-28T21:48:32.928Z,12.17
2019-03-28T21:51:04.681Z,14.07
2019-03-28T21:53:35.578Z,10.63
2019-03-28T21:56:06.516Z,13.47
2019-03-28T21:58:37.416Z,13.30
2019-03-28T22:01:08.331Z,11.27
2019-03-28T22:03:40.015Z,14.07
2019-03-28T22:06:11.888Z,11.83
2019-03-28T22:08:42.786Z,13.10
2019-03-28T22:11:13.714Z,13.20
2019-03-28T22:13:44.616Z,13.50
2019-03-28T22:16:15.534Z,12.37
2019-03-28T22:18:46.430Z,14.27
2019-03-28T22:21:19.866Z,12.57
2019-03-28T22:23:50.764Z,12.93
2019-03-28T22:26:21.690Z,13.77
2019-03-28T22:28:52.584Z,13.17
2019-03-28T22:31:23.502Z,13.47
2019-03-28T22:33:55.168Z,13.20
2019-03-28T22:36:26.136Z,12.40
2019-03-28T22:38:57.022Z,12.20
2019-03-28T22:41:27.962Z,15.37
2019-03-28T22:43:59.140Z,13.80
2019-03-28T22:46:30.072Z,13.90
2019-03-28T22:49:01.041Z,14.83
2019-03-28T22:51:32.000Z,14.17
2019-03-28T22:54:02.897Z,12.50
2019-03-28T22:56:33.818Z,11.67
2019-03-28T22:59:04.715Z,11.67
2019-03-28T23:01:36.212Z,11.97
2019-03-28T23:04:07.721Z,14.10
2019-03-28T23:06:40.141Z,12.67
2019-03-28T23:09:11.045Z,15.00
2019-03-28T23:11:47.883Z,12.70
2019-03-28T23:14:14.578Z,13.00
2019-03-28T23:16:45.498Z,12.80
2019-03-28T23:19:16.382Z,13.83
2019-03-28T23:21:48.153Z,13.57
2019-03-28T23:24:19.039Z,12.47
2019-03-28T23:26:49.970Z,11.80
2019-03-28T23:29:20.865Z,13.50
2019-03-28T23:31:51.858Z,13.67
2019-03-28T23:34:23.272Z,14.37
2019-03-28T23:36:54.224Z,13.50
2019-03-28T23:39:25.139Z,15.60
2019-03-28T23:41:56.061Z,12.67
2019-03-28T23:44:27.217Z,12.63
2019-03-28T23:46:58.782Z,14.17
2019-03-28T23:49:29.676Z,13.57
2019-03-28T23:52:01.432Z,12.90
2019-03-28T23:54:32.329Z,12.03
2019-03-28T23:57:03.353Z,13.60
2019-03-28T23:59:34.293Z,13.20
